x

Shumagin Islands - 85nm South Of Sand Point, Ak (46075) Wave Buoy

6:50am - Sun 19th Apr 2015 All times are UTC.

  • Sig Wave height 11.2ft
  • Peak Period 11s
  • Average Period 8s
  • Wind
    11mph, 16mph gusts
  • Sea Temp 42°f
  • 空気 Temp 40°f
  • Sea Pressure 981.9mb

More Historic Weather Station data

Upgrade to MSW Pro to gain access to the past 30 days of data for over 8000 Wavebouys and Weather Stations around the globe.

Join Pro

Comparision Forecast

View Surf forecast
   
Sun 04/19 6:50am 11ft 11s 8s 11 16 mph 981.9mb 42f 40f
5:50am 11.5ft 11s 8s 7 11 mph 980.9mb 42f 39f
4:50am 11ft 11s 8s 7 9 mph 979.9mb 42f 39f
3:50am 11ft 11s 7s 2 9 mph 979.5mb 42f 39f
2:50am 12ft 11s 8s 2 4 mph 979mb 42f 43f
1:50am 11.5ft 11s 8s 7 11 mph 978.6mb 42f 41f
12:50am 11ft 10s 7s 11 13 mph 978.7mb 42f 41f
Sat 04/18 11:50pm 10ft 12s 7s 9 11 mph 978.9mb 42f 38f
10:50pm 10.5ft 13s 7s 20 22 mph 979mb 42f 42f
9:50pm 10ft 11s 7s 20 25 mph 979.5mb 42f 42f
8:50pm 11ft 11s 7s 20 25 mph 979.7mb 42f 42f
7:50pm 11ft 11s 7s 20 25 mph 979.8mb 42f 41f
6:50pm 10ft 11s 7s 16 22 mph 980.1mb 42f 38f
5:50pm 11ft 11s 7s 20 25 mph 980mb 42f 39f
4:50pm 10.5ft 11s 7s 18 22 mph 980.2mb 42f 36f
3:50pm 11ft 11s 7s 27 34 mph 979.9mb 42f 38f
2:50pm 10.5ft 11s 7s 18 25 mph 980.2mb 42f 39f
1:50pm 10.5ft 11s 7s 20 25 mph 980.4mb 42f 38f
12:50pm 10ft 11s 7s 25 31 mph 980.5mb 42f 38f
11:50am 11ft 11s 7s 22 29 mph 980.7mb 42f 40f
10:50am 10ft 12s 7s 20 22 mph 981.1mb 42f 39f
9:50am 10ft 11s 7s 22 29 mph 981.1mb 42f 40f
8:50am 11ft 11s 7s 25 29 mph 981.7mb 42f 39f
7:50am 14ft 11s 8s 20 25 mph 982.2mb 42f 39f
6:50am 12.5ft 12s 8s 16 20 mph 982.7mb 42f 40f
5:50am 13ft 11s 8s 16 20 mph 982.8mb 42f 39f
4:50am 13.5ft 11s 8s 13 18 mph 982.9mb 42f 40f
3:50am 14ft 12s 8s 13 16 mph 983.4mb 42f 41f
2:50am 13.5ft 11s 8s 9 13 mph 983.5mb 42f 41f
1:50am 15ft 11s 8s 11 16 mph 983.8mb 42f 41f
12:50am 13ft 12s 8s 11 13 mph 983.9mb 42f 42f
Fri 04/17 11:50pm 13ft 11s 8s 9 13 mph 984.3mb 42f 41f
10:50pm 13.5ft 10s 8s 11 16 mph 984.5mb 42f 41f
9:50pm 13ft 11s 8s 13 16 mph 984.4mb 42f 42f
8:50pm 16.5ft 11s 8s 9 11 mph 984.8mb 42f 42f
7:50pm 14.5ft 11s 8s 11 13 mph 985mb 42f 42f
6:50pm 15.5ft 11s 8s 13 18 mph 985.2mb 42f 40f
5:50pm 14ft 11s 7s 11 16 mph 985.4mb 42f 40f
4:50pm 16.5ft 9s 8s 11 16 mph 985.5mb 42f 40f
3:50pm 14.5ft 8s 7s 13 20 mph 985.5mb 42f 37f
2:50pm 16ft 9s 7s 27 34 mph 985.3mb 42f 38f
1:50pm 15.5ft 9s 7s 36 45 mph 986.2mb 42f 37f
12:50pm  -   -   -  38 45 mph 987.4mb 42f 37f
11:50am 13ft 8s 6s 40 49 mph 988.7mb 42f 37f
10:50am 11ft 7s 6s 36 45 mph 990.3mb 42f 37f
9:50am 9.5ft 6s 5s 36 45 mph 991.9mb 41f 36f
8:50am 9ft 6s 5s 34 43 mph 993.8mb 41f 35f
7:50am 7.5ft 6s 5s 34 40 mph 995.5mb 41f 39f
6:50am 6.5ft 5s 4s 34 38 mph 997.2mb 41f 38f
5:50am 5.5ft 5s 4s 29 36 mph 998.4mb 41f 38f
4:50am 5ft 11s 5s 29 34 mph 999.8mb 41f 38f
3:50am 5ft 11s 5s 22 27 mph 1001.3mb 41f 37f
2:50am 4.5ft 11s 5s 22 27 mph 1002.5mb 42f 38f
1:50am 4.5ft 11s 6s 18 20 mph 1003.8mb 42f 36f
12:50am 4.5ft 10s 6s 16 18 mph 1005.1mb 42f 37f
Thu 04/16 11:50pm 4.5ft 10s 6s 16 18 mph 1006mb 42f 37f
10:50pm 5ft 11s 7s 9 13 mph 1006.9mb 42f 36f
9:50pm 5ft 10s 7s 7 9 mph 1007.6mb 42f 37f
8:50pm 5ft 10s 6s 7 11 mph 1008mb 42f 36f
7:50pm 6ft 11s 7s 7 11 mph 1008.3mb 42f 36f
6:50pm 6ft 11s 6s 7 9 mph 1008.6mb 41f 37f
5:50pm 6ft 9s 6s 7 11 mph 1008.9mb 41f 36f
4:50pm 6.5ft 10s 6s 7 11 mph 1009.1mb 41f 34f
3:50pm 7ft 9s 6s 9 11 mph 1009.2mb 41f 31f
2:50pm 7ft 10s 6s 11 16 mph 1009.4mb 41f 33f
1:50pm 7.5ft 11s 6s 11 13 mph 1009.4mb 41f 32f
12:50pm 8ft 11s 6s 11 13 mph 1009.5mb 42f 32f
11:50am 7ft 11s 6s 13 18 mph 1009.3mb 42f 33f
10:50am 8ft 11s 6s 18 22 mph 1009.2mb 42f 33f
9:50am 8ft 6s 6s 16 18 mph 1009.1mb 42f 33f
8:50am 8ft 6s 6s 13 18 mph 1008.8mb 42f 34f
7:50am 8ft 6s 6s 16 22 mph 1008.8mb 42f 34f
6:50am 8.5ft 11s 6s 20 25 mph 1008.4mb 42f 34f
5:50am 9ft 11s 6s 18 22 mph 1008mb 42f 35f
4:50am 9.5ft 7s 6s 20 25 mph 1007.5mb 42f 35f
3:50am 9ft 11s 6s 18 22 mph 1007.1mb 42f 36f
2:50am 10.5ft 7s 7s 22 25 mph 1006.8mb 42f 36f
1:50am 9ft 7s 6s 22 27 mph 1006.5mb 42f 36f
12:50am 10ft 12s 7s 22 25 mph 1006.1mb 41f 37f
Wed 04/15 11:50pm 11ft 13s 7s 20 25 mph 1005.6mb 41f 37f
10:50pm 10ft 11s 7s 25 29 mph 1004.9mb 41f 38f
9:50pm 10ft 12s 6s 22 27 mph 1004.2mb 41f 39f
8:50pm 10.5ft 11s 7s 16 22 mph 1003.8mb 41f 37f
7:50pm 10ft 12s 7s 20 25 mph 1003mb 41f 39f
6:50pm 10.5ft 11s 7s 20 25 mph 1002.5mb 41f 39f
5:50pm 12ft 13s 7s 22 27 mph 1001.9mb 41f 39f
4:50pm 13ft 14s 8s 25 29 mph 1001.2mb 41f 37f
3:50pm 13ft 13s 8s 25 29 mph 1000.5mb 41f 37f
2:50pm 11.5ft 13s 7s 25 29 mph 999.9mb 41f 37f
1:50pm 13ft 14s 8s 27 31 mph 999.2mb 41f 37f
12:50pm 15ft 13s 9s 27 31 mph 998.7mb 41f 37f
11:50am 13ft 13s 8s 27 31 mph 998.1mb 41f 37f
10:50am 17.5ft 14s 9s 25 31 mph 997.7mb 41f 38f
9:50am 13.5ft 14s 8s 25 31 mph 996.8mb 41f 38f
8:50am 15ft 14s 9s 25 31 mph 996.2mb 41f 38f